This is the latest recevied weather packets stored in our database for station/object M0TUM-1. If no packets are shown the sender has not sent any weather packets the latest 10 day(s).
| Time | Temp. | Humidity | Pressure | Rain* | Wind** | Luminosity | Snow |
|---|---|---|---|---|---|---|---|
| 1777984661 | 17.22° C | 46% | 1012.2 hPa | 0 mm | - | 194 W/m² | - |
| 1777984358 | 17.78° C | 45% | 1012.2 hPa | 0 mm | - | 221 W/m² | - |
| 1777984054 | 17.22° C | 47% | 1012.2 hPa | 0 mm | - | 336 W/m² | - |
| 1777983752 | 17.22° C | 46% | 1012.4 hPa | 0 mm | - | 281 W/m² | - |
| 1777983448 | 16.67° C | 46% | 1012.1 hPa | 0 mm | - | 268 W/m² | - |
| 1777983145 | 16.67° C | 46% | 1012.3 hPa | 0 mm | - | 258 W/m² | - |
| 1777982841 | 16.67° C | 45% | 1012.4 hPa | 0 mm | - | 229 W/m² | - |
| 1777982537 | 16.67° C | 46% | 1012.4 hPa | 0 mm | - | 216 W/m² | - |
| 1777982236 | 16.67° C | 46% | 1012.3 hPa | 0 mm | - | 216 W/m² | - |
| 1777981934 | 17.78° C | 45% | 1012.3 hPa | 0 mm | - | 201 W/m² | - |
| 1777981631 | 17.78° C | 45% | 1012.4 hPa | 0 mm | - | 322 W/m² | - |
| 1777981327 | 16.67° C | 47% | 1012.4 hPa | 0 mm | - | 776 W/m² | - |
| 1777981023 | 16.67° C | 47% | 1012.6 hPa | 0 mm | - | 184 W/m² | - |
| 1777980720 | 16.67° C | 47% | 1012.3 hPa | 0 mm | - | 657 W/m² | - |
| 1777980416 | 17.78° C | 47% | 1012.6 hPa | 0 mm | - | 166 W/m² | - |
| 1777980115 | 17.78° C | 46% | 1012.4 hPa | 0 mm | - | 706 W/m² | - |
| 1777979814 | 17.22° C | 47% | 1012.6 hPa | 0 mm | - | 704 W/m² | - |
| 1777979510 | 16.67° C | 50% | 1012.5 hPa | 0 mm | - | 757 W/m² | - |
| 1777979206 | 17.22° C | 46% | 1012.6 hPa | 0 mm | - | 630 W/m² | - |
| 1777978904 | 16.11° C | 51% | 1012.7 hPa | 0 mm | - | 725 W/m² | - |
| 1777978600 | 16.11° C | 50% | 1012.6 hPa | 0 mm | - | 719 W/m² | - |
| 1777978296 | 15.56° C | 50% | 1013 hPa | 0 mm | - | 706 W/m² | - |
| 1777977993 | 16.11° C | 51% | 1012.9 hPa | 0 mm | - | 710 W/m² | - |
| 1777977691 | 16.67° C | 50% | 1012.7 hPa | 0 mm | - | 704 W/m² | - |
| 1777977387 | 16.67° C | 49% | 1012.7 hPa | 0 mm | - | 711 W/m² | - |
* Rain latest hour (hover to see other rain measurements)
** Current wind speed in m/s (hover to see current wind gust speed)